Time;durP1;ratioP1;P1;durP2;ratioP2;P2;SDS_P1;SDS_P2;PMS_P1;PMS_P2;Temp;Humidity;BMP_temperature;BMP_pressure;BME280_temperature;BME280_humidity;BME280_pressure;Samples;Min_cycle;Max_cycle;Signal;HPM_P1;HPM_P2
2022/09/02 00:01:53;;;;;;;;;;;;;;;21.86;34.16;99970.16;4386648;32;37475;-80
2022/09/02 00:04:24;;;;;;;;;;;;;;;21.89;35.92;99972.72;4383436;32;38915;-79
2022/09/02 00:06:51;;;;;;;;;;;;;;;21.66;35.77;99957.53;4383101;32;38668;-80
2022/09/02 00:09:20;;;;;;;;;;;;;;;21.68;35.34;99959.25;4384919;32;37686;-80
2022/09/02 00:11:49;;;;;;;;;;;;;;;21.61;36.18;99955.03;4384524;32;38227;-80
2022/09/02 00:14:18;;;;;;;;;;;;;;;21.75;34.34;99955.50;4383274;32;39311;-80
2022/09/02 00:16:49;;;;;;;;;;;;;;;21.78;36.38;99954.56;4384916;32;40199;-80
2022/09/02 00:19:19;;;;;;;;;;;;;;;21.93;36.25;99948.00;4378691;32;36945;-80
2022/09/02 00:21:46;;;;;;;;;;;;;;;21.74;35.03;99948.53;4384966;32;37965;-80
2022/09/02 00:24:13;;;;;;;;;;;;;;;21.98;34.10;99946.09;4384601;32;38411;-85
2022/09/02 00:26:41;;;;;;;;;;;;;;;21.71;34.89;99943.34;4380652;32;38804;-80
2022/09/02 00:29:08;;;;;;;;;;;;;;;21.76;34.40;99945.84;4384719;32;37020;-80
2022/09/02 00:31:35;;;;;;;;;;;;;;;21.77;35.27;99945.81;4383297;32;38052;-80
2022/09/02 00:34:03;;;;;;;;;;;;;;;21.91;34.56;99940.13;4384820;32;37823;-80
2022/09/02 00:36:31;;;;;;;;;;;;;;;21.79;34.07;99946.63;4387424;32;38707;-80
2022/09/02 00:38:58;;;;;;;;;;;;;;;21.66;34.92;99945.22;4383841;32;37592;-80
2022/09/02 00:41:26;;;;;;;;;;;;;;;21.61;33.39;99936.59;4384598;32;38793;-80
2022/09/02 00:43:57;;;;;;;;;;;;;;;21.78;34.26;99939.63;4375642;32;38439;-80
2022/09/02 00:46:25;;;;;;;;;;;;;;;21.50;34.24;99928.97;4395311;32;39683;-80
2022/09/02 00:48:55;;;;;;;;;;;;;;;21.79;34.76;99936.09;4382734;32;37570;-80
2022/09/02 00:51:22;;;;;;;;;;;;;;;21.87;35.59;99932.37;4376517;32;38532;-80
2022/09/02 00:53:50;;;;;;;;;;;;;;;21.86;34.62;99935.91;4384330;32;37741;-80
2022/09/02 00:56:27;;;;;;;;;;;;;;;21.94;34.98;99934.78;4384696;32;38316;-80
2022/09/02 00:58:54;;;;;;;;;;;;;;;21.73;35.06;99931.00;4384371;32;37226;-80
2022/09/02 01:01:22;;;;;;;;;;;;;;;21.71;35.21;99932.81;4382048;32;38232;-81
2022/09/02 01:03:49;;;;;;;;;;;;;;;21.87;33.98;99921.84;4383743;32;39049;-81
2022/09/02 01:06:18;;;;;;;;;;;;;;;21.96;33.86;99926.84;4383151;32;38877;-80
2022/09/02 01:08:48;;;;;;;;;;;;;;;21.94;34.37;99923.38;4382712;32;37701;-82
2022/09/02 01:11:17;;;;;;;;;;;;;;;21.94;34.42;99918.09;4378216;32;38526;-81
2022/09/02 01:13:45;;;;;;;;;;;;;;;22.00;33.68;99925.84;4369712;32;38465;-82
2022/09/02 01:16:18;;;;;;;;;;;;;;;21.95;31.97;99922.44;4372092;32;39199;-82
2022/09/02 01:18:46;;;;;;;;;;;;;;;21.99;32.54;99921.47;4370979;32;36688;-82
2022/09/02 01:21:14;;;;;;;;;;;;;;;22.00;33.11;99917.94;4075877;32;10000183;-81
2022/09/02 01:23:42;;;;;;;;;;;;;;;21.80;33.59;99927.28;4385119;32;20008;-81
2022/09/02 01:26:11;;;;;;;;;;;;;;;21.91;33.06;99923.47;4382930;32;38044;-81
2022/09/02 01:28:39;;;;;;;;;;;;;;;22.10;32.80;99924.66;4383456;32;38827;-81
2022/09/02 01:31:06;;;;;;;;;;;;;;;21.99;32.72;99926.75;4384027;32;37225;-81
2022/09/02 01:33:33;;;;;;;;;;;;;;;21.74;32.80;99926.59;4382221;32;38319;-81
2022/09/02 01:36:03;;;;;;;;;;;;;;;21.64;32.89;99930.41;4384367;32;37763;-80
2022/09/02 01:38:31;;;;;;;;;;;;;;;21.96;32.66;99924.19;4382625;32;39239;-81
2022/09/02 01:40:58;;;;;;;;;;;;;;;22.12;31.17;99928.09;4374343;32;37436;-81
2022/09/02 01:43:26;;;;;;;;;;;;;;;22.07;32.23;99927.38;4384476;32;37814;-81
2022/09/02 01:45:54;;;;;;;;;;;;;;;21.67;33.37;99920.62;4384124;32;37793;-81
2022/09/02 01:48:22;;;;;;;;;;;;;;;21.77;32.65;99924.72;4383661;32;39280;-81
2022/09/02 01:50:51;;;;;;;;;;;;;;;21.90;32.74;99927.00;4385493;32;37382;-80
2022/09/02 01:53:19;;;;;;;;;;;;;;;21.95;32.39;99925.97;4384370;32;37988;-81
2022/09/02 01:55:47;;;;;;;;;;;;;;;21.90;32.66;99921.75;4383722;32;37171;-81
2022/09/02 01:58:15;;;;;;;;;;;;;;;21.65;32.94;99917.16;4370194;32;39374;-81
2022/09/02 02:00:42;;;;;;;;;;;;;;;21.48;32.20;99919.41;4383763;32;36849;-81
2022/09/02 02:03:10;;;;;;;;;;;;;;;21.65;33.02;99917.16;4387207;32;37871;-81
2022/09/02 02:05:37;;;;;;;;;;;;;;;21.77;32.41;99922.09;4384062;32;39403;-81
2022/09/02 02:08:05;;;;;;;;;;;;;;;21.62;35.00;99911.13;4384349;32;38914;-81
2022/09/02 02:10:33;;;;;;;;;;;;;;;21.83;32.16;99914.00;4385541;32;37660;-80
2022/09/02 02:13:00;;;;;;;;;;;;;;;21.73;32.61;99916.94;4383627;32;37971;-80
2022/09/02 02:15:30;;;;;;;;;;;;;;;21.62;33.57;99911.13;4384295;32;38997;-80
2022/09/02 02:18:00;;;;;;;;;;;;;;;21.68;34.11;99909.19;4373791;32;38287;-81
2022/09/02 02:20:28;;;;;;;;;;;;;;;21.72;33.98;99915.22;4382368;32;37625;-81
2022/09/02 02:22:55;;;;;;;;;;;;;;;21.70;33.69;99910.00;4370475;32;36648;-81
2022/09/02 02:25:23;;;;;;;;;;;;;;;21.96;33.81;99913.66;4377801;32;38196;-81
2022/09/02 02:27:51;;;;;;;;;;;;;;;21.97;33.58;99908.31;4382877;32;39537;-80
2022/09/02 02:30:20;;;;;;;;;;;;;;;21.93;34.99;99916.38;4385389;32;40740;-80
2022/09/02 02:32:47;;;;;;;;;;;;;;;21.75;34.50;99913.34;4339413;32;38938;-80
2022/09/02 02:35:15;;;;;;;;;;;;;;;21.98;34.74;99914.47;4339520;33;37913;-80
2022/09/02 02:37:44;;;;;;;;;;;;;;;21.98;34.77;99919.72;4337593;33;39597;-80
2022/09/02 02:40:13;;;;;;;;;;;;;;;21.89;34.11;99904.19;4349612;32;38023;-80
2022/09/02 02:42:40;;;;;;;;;;;;;;;21.73;33.42;99915.19;4339019;33;38326;-82
2022/09/02 02:45:08;;;;;;;;;;;;;;;21.94;34.49;99908.41;4342636;32;37798;-81
2022/09/02 02:47:45;;;;;;;;;;;;;;;21.70;35.22;99899.47;4349209;32;39202;-81
2022/09/02 02:50:14;;;;;;;;;;;;;;;21.93;35.11;99908.47;3759667;32;10000972;-81
2022/09/02 02:52:42;;;;;;;;;;;;;;;21.86;34.78;99905.16;4382174;32;20616;-81
2022/09/02 02:55:09;;;;;;;;;;;;;;;21.62;35.14;99911.97;4375106;32;36977;-81
2022/09/02 02:57:47;;;;;;;;;;;;;;;21.57;33.33;99909.50;4367579;32;38943;-81
2022/09/02 03:00:18;;;;;;;;;;;;;;;21.50;35.38;99907.03;4369204;32;39513;-81
2022/09/02 03:02:46;;;;;;;;;;;;;;;21.55;33.46;99910.44;4366914;32;37983;-80
2022/09/02 03:05:16;;;;;;;;;;;;;;;21.41;34.00;99907.28;4368874;32;38024;-81
2022/09/02 03:07:44;;;;;;;;;;;;;;;21.39;34.30;99909.13;4368826;32;39870;-81
2022/09/02 03:10:13;;;;;;;;;;;;;;;21.44;33.39;99907.22;4354215;32;37786;-81
2022/09/02 03:12:41;;;;;;;;;;;;;;;21.50;33.87;99907.03;4367270;32;38415;-81
2022/09/02 03:15:10;;;;;;;;;;;;;;;21.44;34.90;99896.69;4368435;32;38623;-80
2022/09/02 03:17:39;;;;;;;;;;;;;;;21.32;35.31;99896.09;4368672;32;38908;-81
2022/09/02 03:20:06;;;;;;;;;;;;;;;21.25;34.84;99897.16;4368251;32;38226;-81
2022/09/02 03:22:37;;;;;;;;;;;;;;;21.40;34.92;99892.41;4382244;32;38983;-81
2022/09/02 03:25:08;;;;;;;;;;;;;;;21.05;34.57;99899.44;4372436;32;37037;-80
2022/09/02 03:27:38;;;;;;;;;;;;;;;21.29;34.42;99898.81;4369887;32;37743;-80
2022/09/02 03:30:07;;;;;;;;;;;;;;;20.72;32.92;99896.78;4353293;32;38795;-80
2022/09/02 03:32:36;;;;;;;;;;;;;;;21.08;33.49;99894.09;4361823;32;39039;-81
2022/09/02 03:35:06;;;;;;;;;;;;;;;21.23;35.85;99896.34;4371340;32;37014;-81
2022/09/02 03:37:34;;;;;;;;;;;;;;;21.28;35.62;99907.63;4368363;32;38877;-81
2022/09/02 03:40:07;;;;;;;;;;;;;;;21.13;34.69;99890.44;4367840;32;38314;-81
2022/09/02 03:42:35;;;;;;;;;;;;;;;21.25;34.57;99897.16;4366284;32;38625;-81
2022/09/02 03:45:05;;;;;;;;;;;;;;;20.98;36.26;99904.00;4367982;32;37028;-81
2022/09/02 03:47:33;;;;;;;;;;;;;;;20.36;36.76;99899.34;4362730;32;38092;-81
2022/09/02 03:50:02;;;;;;;;;;;;;;;20.17;37.64;99903.28;4351219;32;37975;-81
2022/09/02 03:52:30;;;;;;;;;;;;;;;20.61;36.00;99902.31;4334314;32;38749;-81
2022/09/02 03:54:57;;;;;;;;;;;;;;;20.56;35.90;99895.41;4353041;32;36743;-82
2022/09/02 03:57:26;;;;;;;;;;;;;;;20.44;37.21;99899.16;4352863;32;38244;-80
2022/09/02 03:59:53;;;;;;;;;;;;;;;20.13;39.99;99896.34;4352127;32;38148;-80
2022/09/02 04:02:20;;;;;;;;;;;;;;;19.93;37.11;99896.78;4351422;32;37571;-81
2022/09/02 04:04:48;;;;;;;;;;;;;;;20.34;37.33;99901.13;4352840;32;37704;-83
2022/09/02 04:07:15;;;;;;;;;;;;;;;20.69;37.09;99891.59;4356738;32;37941;-81
2022/09/02 04:09:43;;;;;;;;;;;;;;;20.74;37.68;99900.25;4353028;32;39288;-80
2022/09/02 04:12:13;;;;;;;;;;;;;;;20.48;39.16;99907.84;4353216;32;39305;-81
2022/09/02 04:14:41;;;;;;;;;;;;;;;20.55;37.54;99906.81;4352680;32;37176;-81
2022/09/02 04:17:09;;;;;;;;;;;;;;;20.78;37.29;99912.41;4354667;32;39132;-81
2022/09/02 04:19:38;;;;;;;;;;;;;;;20.25;37.95;99906.59;4352446;32;38141;-81
2022/09/02 04:22:06;;;;;;;;;;;;;;;19.81;40.29;99905.78;4352588;32;39483;-80
2022/09/02 04:24:34;;;;;;;;;;;;;;;20.34;39.38;99901.13;4339658;32;36809;-81
2022/09/02 04:27:02;;;;;;;;;;;;;;;20.53;39.27;99904.25;4354510;32;38529;-81
2022/09/02 04:29:31;;;;;;;;;;;;;;;20.77;35.53;99905.44;4352557;32;38281;-80
2022/09/02 04:31:59;;;;;;;;;;;;;;;20.18;38.40;99905.88;4352794;32;38681;-82
2022/09/02 04:34:26;;;;;;;;;;;;;;;20.49;39.94;99909.59;4352580;32;36927;-81
2022/09/02 04:36:55;;;;;;;;;;;;;;;20.50;40.21;99911.31;4354017;32;38158;-86
2022/09/02 04:39:22;;;;;;;;;;;;;;;20.62;39.67;99911.06;4355157;32;38067;-84
2022/09/02 04:41:52;;;;;;;;;;;;;;;20.71;38.09;99905.56;4357003;32;39977;-92
2022/09/02 04:44:20;;;;;;;;;;;;;;;20.78;37.49;99911.53;4353696;32;38041;-90
2022/09/02 04:46:48;;;;;;;;;;;;;;;20.11;39.87;99911.31;4356048;32;38119;-89
2022/09/02 04:49:16;;;;;;;;;;;;;;;20.44;37.11;99915.78;4355183;32;37970;-93
2022/09/02 04:51:45;;;;;;;;;;;;;;;20.75;37.29;99917.75;4356818;32;40280;-90
2022/09/02 04:54:34;;;;;;;;;;;;;;;20.66;38.85;99913.56;4343287;32;37127;-88
2022/09/02 04:57:04;;;;;;;;;;;;;;;20.07;40.33;99917.50;4356798;32;37837;-85
2022/09/02 04:59:35;;;;;;;;;;;;;;;20.39;38.74;99920.31;4356220;32;37977;-84
2022/09/02 05:02:03;;;;;;;;;;;;;;;20.74;39.63;99918.66;4357299;32;39966;-89
2022/09/02 05:04:32;;;;;;;;;;;;;;;19.90;40.42;99916.09;4354658;32;37163;-87
2022/09/02 05:07:00;;;;;;;;;;;;;;;20.50;39.45;99921.81;4359102;32;37755;-94
2022/09/02 05:09:29;;;;;;;;;;;;;;;20.73;39.96;99919.53;4345381;32;38115;-95
2022/09/02 05:11:57;;;;;;;;;;;;;;;20.86;39.43;99915.69;4354990;32;39370;-88
2022/09/02 05:14:25;;;;;;;;;;;;;;;20.83;40.54;99925.44;4354490;32;37186;-86
2022/09/02 05:16:56;;;;;;;;;;;;;;;21.00;38.14;99922.41;4353975;32;38804;-88
2022/09/02 05:19:23;;;;;;;;;;;;;;;20.74;40.22;99928.28;4352967;32;37224;-90
2022/09/02 05:21:54;;;;;;;;;;;;;;;20.80;39.08;99921.09;4332694;32;39841;-88
2022/09/02 05:24:22;;;;;;;;;;;;;;;20.79;39.35;99922.00;4354879;32;36725;-88
2022/09/02 05:26:53;;;;;;;;;;;;;;;20.52;38.94;99925.31;4350936;32;37901;-89
2022/09/02 05:29:22;;;;;;;;;;;;;;;20.89;38.43;99926.16;4355895;32;37944;-88
2022/09/02 05:31:50;;;;;;;;;;;;;;;20.69;35.53;99917.87;4354280;32;38574;-89
2022/09/02 05:34:18;;;;;;;;;;;;;;;20.30;39.34;99925.78;4350774;32;37869;-91
2022/09/02 05:36:46;;;;;;;;;;;;;;;20.63;40.10;99923.28;4352753;32;38476;-91
2022/09/02 05:39:14;;;;;;;;;;;;;;;20.81;38.38;99922.00;4357066;32;37571;-92
2022/09/02 05:41:41;;;;;;;;;;;;;;;21.17;37.23;99928.09;4352966;32;40461;-90
2022/09/02 05:44:10;;;;;;;;;;;;;;;20.54;37.76;99923.50;4351733;32;37197;-90
2022/09/02 05:46:38;;;;;;;;;;;;;;;20.88;36.69;99920.94;4353268;32;38536;-90
2022/09/02 05:49:06;;;;;;;;;;;;;;;20.78;35.55;99922.94;4353531;32;38398;-88
2022/09/02 05:51:42;;;;;;;;;;;;;;;21.31;37.07;99923.34;4354643;32;38995;-91
2022/09/02 05:54:15;;;;;;;;;;;;;;;21.45;37.23;99914.22;4356189;32;37955;-89
2022/09/02 05:56:43;;;;;;;;;;;;;;;21.57;37.81;99916.53;4368605;32;38048;-88
2022/09/02 05:59:12;;;;;;;;;;;;;;;21.07;38.23;99918.72;4368219;32;38388;-88
2022/09/02 06:01:39;;;;;;;;;;;;;;;21.64;34.07;99923.34;4361884;32;38902;-84
2022/09/02 06:04:07;;;;;;;;;;;;;;;21.72;36.31;99929.25;4348276;32;36749;-84
2022/09/02 06:06:37;;;;;;;;;;;;;;;21.68;35.63;99926.75;3759994;32;10001050;-84
2022/09/02 06:09:07;;;;;;;;;;;;;;;21.63;34.86;99916.34;4363422;32;36709;-85
2022/09/02 06:11:38;;;;;;;;;;;;;;;21.81;35.35;99923.72;4367621;32;37373;-85
2022/09/02 06:14:07;;;;;;;;;;;;;;;21.85;36.27;99934.19;4363361;32;38941;-84
2022/09/02 06:16:36;;;;;;;;;;;;;;;21.50;34.97;99928.12;4367513;32;39514;-84
2022/09/02 06:19:03;;;;;;;;;;;;;;;21.90;34.71;99927.00;4369292;32;37012;-84
2022/09/02 06:21:31;;;;;;;;;;;;;;;22.07;34.16;99932.66;4360636;32;39527;-83
2022/09/02 06:23:58;;;;;;;;;;;;;;;21.97;35.98;99933.81;4367114;32;38287;-86
2022/09/02 06:26:26;;;;;;;;;;;;;;;22.07;34.72;99930.00;4369245;32;38818;-84
2022/09/02 06:28:54;;;;;;;;;;;;;;;22.14;34.65;99934.19;4367806;32;37749;-84
2022/09/02 06:31:22;;;;;;;;;;;;;;;21.92;35.81;99933.09;4368733;32;38336;-84
2022/09/02 06:33:51;;;;;;;;;;;;;;;22.18;35.19;99933.22;4368431;32;39723;-85
2022/09/02 06:36:20;;;;;;;;;;;;;;;22.21;35.88;99933.16;4368727;32;39618;-85
2022/09/02 06:38:49;;;;;;;;;;;;;;;22.45;35.32;99930.66;4362381;32;37518;-85
2022/09/02 06:41:18;;;;;;;;;;;;;;;22.37;34.52;99937.97;4368929;32;38985;-85
2022/09/02 06:43:45;;;;;;;;;;;;;;;22.45;36.00;99942.06;4368898;32;39186;-85
2022/09/02 06:46:21;;;;;;;;;;;;;;;22.26;37.42;99933.84;4370376;32;38614;-84
2022/09/02 06:48:49;;;;;;;;;;;;;;;22.72;33.87;99934.22;4367914;32;38041;-85
2022/09/02 06:51:21;;;;;;;;;;;;;;;22.46;35.41;99935.00;4367734;32;37948;-85
2022/09/02 06:53:49;;;;;;;;;;;;;;;22.68;35.44;99943.97;4354606;32;38461;-84
2022/09/02 06:56:17;;;;;;;;;;;;;;;22.79;35.83;99937.50;4368173;32;38631;-85
2022/09/02 06:58:44;;;;;;;;;;;;;;;22.90;35.08;99938.00;4365984;32;35994;-85
2022/09/02 07:01:21;;;;;;;;;;;;;;;23.00;35.38;99928.88;4368382;32;38724;-86
2022/09/02 07:06:36;;;;;;;;;;;;;;;23.75;35.62;99938.66;4370247;32;40068;-82
2022/09/02 07:09:05;;;;;;;;;;;;;;;23.83;33.33;99931.28;4368380;32;37499;-84
2022/09/02 07:11:33;;;;;;;;;;;;;;;23.91;32.43;99931.87;4368381;32;37593;-85
2022/09/02 07:14:01;;;;;;;;;;;;;;;24.08;33.74;99921.50;4369595;32;38207;-83
2022/09/02 07:16:30;;;;;;;;;;;;;;;23.97;32.39;99928.16;4369655;32;39532;-86
2022/09/02 07:19:00;;;;;;;;;;;;;;;24.22;32.92;99922.75;4367134;32;36993;-85
2022/09/02 07:21:27;;;;;;;;;;;;;;;24.14;32.25;99926.56;4361119;32;38494;-85
2022/09/02 07:24:00;;;;;;;;;;;;;;;24.07;31.93;99930.38;4367789;32;36866;-85
2022/09/02 07:26:27;;;;;;;;;;;;;;;24.12;32.14;99931.06;4367686;32;39169;-83
2022/09/02 07:28:55;;;;;;;;;;;;;;;24.08;32.94;99928.59;4368941;32;37355;-81
2022/09/02 07:31:23;;;;;;;;;;;;;;;24.08;35.24;99932.09;4369095;32;37624;-83
2022/09/02 07:33:51;;;;;;;;;;;;;;;24.12;34.78;99933.72;4372026;32;37864;-82
2022/09/02 07:36:20;;;;;;;;;;;;;;;24.24;33.31;99932.37;4353999;32;38674;-82
2022/09/02 07:38:48;;;;;;;;;;;;;;;24.57;32.26;99935.53;4351965;32;37277;-82
2022/09/02 07:41:16;;;;;;;;;;;;;;;24.56;32.94;99931.13;4369950;32;38889;-83
2022/09/02 07:43:45;;;;;;;;;;;;;;;24.48;33.87;99930.59;4367661;32;39473;-82
2022/09/02 07:46:18;;;;;;;;;;;;;;;24.59;33.16;99938.94;4367933;32;38978;-82
2022/09/02 07:48:48;;;;;;;;;;;;;;;24.69;34.42;99935.94;4368062;32;36946;-82
2022/09/02 07:51:17;;;;;;;;;;;;;;;24.81;32.94;99927.50;4371357;32;37837;-82
2022/09/02 07:53:45;;;;;;;;;;;;;;;24.94;32.40;99928.72;4367931;32;38907;-82
2022/09/02 07:56:12;;;;;;;;;;;;;;;24.89;32.79;99929.81;4363910;32;39120;-83
2022/09/02 07:58:40;;;;;;;;;;;;;;;25.11;31.27;99928.03;4364141;32;36809;-81
2022/09/02 08:01:08;;;;;;;;;;;;;;;24.65;34.32;99932.56;4368432;32;39077;-81
2022/09/02 08:03:37;;;;;;;;;;;;;;;24.93;33.83;99932.28;4368110;32;37928;-83
2022/09/02 08:06:06;;;;;;;;;;;;;;;25.13;30.79;99933.28;4364568;32;38796;-83
2022/09/02 08:08:34;;;;;;;;;;;;;;;24.78;34.35;99932.91;4372987;32;37975;-82
2022/09/02 08:11:01;;;;;;;;;;;;;;;24.69;35.25;99931.50;4370845;32;37935;-82
2022/09/02 08:13:29;;;;;;;;;;;;;;;24.86;33.03;99936.12;4368281;32;38977;-83
2022/09/02 08:15:56;;;;;;;;;;;;;;;24.95;34.20;99935.75;4369965;32;39000;-81
2022/09/02 08:18:23;;;;;;;;;;;;;;;24.76;33.60;99940.06;4369786;32;36968;-82
2022/09/02 08:20:51;;;;;;;;;;;;;;;24.75;33.09;99930.41;4365300;32;38848;-82
2022/09/02 08:23:18;;;;;;;;;;;;;;;24.66;34.37;99936.06;4376497;32;40079;-83
2022/09/02 08:26:04;;;;;;;;;;;;;;;25.06;31.69;99930.00;4369805;32;38993;-83
2022/09/02 08:28:31;;;;;;;;;;;;;;;25.17;31.22;99940.16;4369495;32;36994;-83
2022/09/02 08:30:59;;;;;;;;;;;;;;;25.24;34.21;99931.03;4344143;32;37388;-84
2022/09/02 08:33:27;;;;;;;;;;;;;;;25.42;31.43;99924.91;4353143;32;39377;-84
2022/09/02 08:35:55;;;;;;;;;;;;;;;25.48;31.56;99924.66;4356192;32;39848;-83
2022/09/02 08:38:22;;;;;;;;;;;;;;;25.60;31.25;99928.56;4347518;32;36999;-83
2022/09/02 08:40:50;;;;;;;;;;;;;;;25.41;32.48;99923.22;4367927;32;38781;-83
2022/09/02 08:43:43;;;;;;;;;;;;;;;25.16;32.63;99923.41;4369750;32;38713;-83
2022/09/02 08:46:13;;;;;;;;;;;;;;;25.27;32.82;99915.88;4367520;32;40073;-82
2022/09/02 08:48:45;;;;;;;;;;;;;;;25.57;31.52;99917.22;4370153;32;37325;-83
2022/09/02 08:51:19;;;;;;;;;;;;;;;25.65;30.44;99920.38;4369391;32;38645;-82
2022/09/02 08:53:51;;;;;;;;;;;;;;;25.30;33.87;99920.16;4353048;32;39139;-83
2022/09/02 08:56:18;;;;;;;;;;;;;;;25.18;36.71;99920.69;4368255;32;39650;-82
2022/09/02 08:58:48;;;;;;;;;;;;;;;25.55;32.80;99919.09;4371165;32;37361;-83
2022/09/02 09:01:34;;;;;;;;;;;;;;;25.46;36.13;99921.22;4368298;32;38068;-83
2022/09/02 09:04:06;;;;;;;;;;;;;;;25.89;32.20;99923.75;4369697;32;38423;-83
2022/09/02 09:06:56;;;;;;;;;;;;;;;25.98;32.40;99923.34;4368014;32;40539;-83
2022/09/02 09:09:27;;;;;;;;;;;;;;;26.11;30.66;99919.19;4371880;32;37182;-83
2022/09/02 09:12:01;;;;;;;;;;;;;;;26.25;30.39;99921.19;4369761;32;38007;-83
2022/09/02 09:14:28;;;;;;;;;;;;;;;26.18;31.46;99909.16;4364822;32;37472;-83
2022/09/02 09:16:59;;;;;;;;;;;;;;;26.46;31.28;99913.16;4387168;32;38858;-84
2022/09/02 09:19:27;;;;;;;;;;;;;;;26.84;29.07;99909.50;4371501;32;37518;-83
2022/09/02 09:21:54;;;;;;;;;;;;;;;26.69;30.45;99915.56;4374747;32;38779;-83
2022/09/02 09:24:21;;;;;;;;;;;;;;;26.54;29.43;99913.66;4371162;32;38144;-83
2022/09/02 09:26:49;;;;;;;;;;;;;;;26.30;31.36;99913.03;4371549;32;39322;-83
2022/09/02 09:29:17;;;;;;;;;;;;;;;26.27;32.49;99913.16;4368406;32;37151;-82
2022/09/02 09:31:45;;;;;;;;;;;;;;;26.60;31.32;99906.25;4369123;32;38875;-83
2022/09/02 09:34:13;;;;;;;;;;;;;;;26.66;32.32;99916.56;4369213;32;38185;-83
2022/09/02 09:36:41;;;;;;;;;;;;;;;26.94;29.38;99909.03;4369462;32;39627;-84
2022/09/02 09:39:26;;;;;;;;;;;;;;;27.21;28.15;99907.63;4364792;32;37982;-83
2022/09/02 09:41:57;;;;;;;;;;;;;;;26.94;33.85;99903.72;4373488;32;37863;-84
2022/09/02 09:44:30;;;;;;;;;;;;;;;27.09;30.58;99902.91;4370921;32;38964;-83
2022/09/02 09:47:02;;;;;;;;;;;;;;;27.64;27.02;99900.09;4369489;32;38726;-84
2022/09/02 09:49:29;;;;;;;;;;;;;;;27.33;27.07;99896.38;4364777;32;38286;-85
2022/09/02 09:51:56;;;;;;;;;;;;;;;27.36;30.98;99890.91;4372167;32;38956;-82
2022/09/02 09:54:24;;;;;;;;;;;;;;;27.70;28.75;99883.78;4374151;32;38869;-82
2022/09/02 09:56:52;;;;;;;;;;;;;;;27.64;28.56;99881.47;4369178;32;38859;-82
2022/09/02 09:59:40;;;;;;;;;;;;;;;27.43;29.96;99885.25;4363792;32;36937;-83
2022/09/02 10:02:15;;;;;;;;;;;;;;;27.49;29.19;99885.78;4348038;32;38067;-83
2022/09/02 10:04:43;;;;;;;;;;;;;;;27.11;30.17;99885.09;4352799;32;37814;-83
2022/09/02 10:07:12;;;;;;;;;;;;;;;27.28;28.66;99877.16;4353826;32;39210;-83
2022/09/02 10:09:40;;;;;;;;;;;;;;;27.23;27.53;99884.50;4040789;32;10008943;-83
2022/09/02 10:12:08;;;;;;;;;;;;;;;27.00;29.92;99887.47;4353394;32;38257;-83
2022/09/02 10:14:40;;;;;;;;;;;;;;;26.77;31.95;99884.19;4351598;32;38772;-83
2022/09/02 10:17:10;;;;;;;;;;;;;;;26.80;30.20;99884.03;4353136;32;37903;-84
2022/09/02 10:19:46;;;;;;;;;;;;;;;26.70;29.86;99889.84;4355785;32;39052;-84
2022/09/02 10:22:32;;;;;;;;;;;;;;;26.66;30.47;99892.66;4352880;32;38098;-83
2022/09/02 10:25:38;;;;;;;;;;;;;;;26.62;33.08;99888.44;4352849;32;37886;-83
2022/09/02 10:28:12;;;;;;;;;;;;;;;26.91;30.25;99883.47;4354515;32;37267;-83
2022/09/02 10:30:41;;;;;;;;;;;;;;;26.76;30.42;99887.75;4356101;32;38791;-83
2022/09/02 10:33:20;;;;;;;;;;;;;;;26.57;29.49;99890.47;4355125;32;37137;-83
2022/09/02 10:35:49;;;;;;;;;;;;;;;26.63;30.94;99884.00;4353957;32;37685;-82
2022/09/02 10:38:23;;;;;;;;;;;;;;;26.66;29.35;99886.50;4352918;32;38082;-84
2022/09/02 10:40:57;;;;;;;;;;;;;;;26.39;31.32;99892.19;4346464;32;39299;-82
2022/09/02 10:43:27;;;;;;;;;;;;;;;26.42;32.11;99897.38;4354067;32;37046;-81
2022/09/02 10:45:57;;;;;;;;;;;;;;;26.69;31.91;99894.31;4349449;32;37897;-82
2022/09/02 10:48:27;;;;;;;;;;;;;;;26.29;33.87;99896.25;4344971;32;39184;-83
2022/09/02 10:51:05;;;;;;;;;;;;;;;26.41;31.59;99890.31;4354009;32;39537;-84
2022/09/02 10:53:38;;;;;;;;;;;;;;;26.35;33.25;99885.28;4345642;32;37751;-82
2022/09/02 10:56:32;;;;;;;;;;;;;;;26.47;30.05;99888.31;4344842;32;38732;-82
2022/09/02 10:59:02;;;;;;;;;;;;;;;26.55;30.60;99881.72;4331837;32;37600;-82
2022/09/02 11:01:32;;;;;;;;;;;;;;;26.56;29.41;99887.91;4346744;32;38832;-82
2022/09/02 11:04:02;;;;;;;;;;;;;;;26.35;32.16;99895.06;4345535;32;36996;-81
2022/09/02 11:06:31;;;;;;;;;;;;;;;26.39;32.09;99892.19;4347801;32;37816;-82
2022/09/02 11:09:38;;;;;;;;;;;;;;;26.47;31.95;99893.63;4344088;32;36964;-84
2022/09/02 11:12:08;;;;;;;;;;;;;;;26.60;29.79;99887.66;4335174;32;38870;-83
2022/09/02 11:14:36;;;;;;;;;;;;;;;26.72;29.81;99888.00;4345269;32;37083;-82
2022/09/02 11:17:05;;;;;;;;;;;;;;;26.72;30.46;99894.16;4356575;32;38434;-81
2022/09/02 11:19:44;;;;;;;;;;;;;;;26.60;31.66;99884.16;4344674;32;37868;-81
2022/09/02 11:22:26;;;;;;;;;;;;;;;27.37;28.69;99876.66;4343965;32;40031;-81
2022/09/02 11:24:59;;;;;;;;;;;;;;;27.51;30.09;99875.09;4339073;32;37425;-84
2022/09/02 11:27:38;;;;;;;;;;;;;;;27.66;29.44;99871.59;4337497;33;38949;-85
2022/09/02 11:30:14;;;;;;;;;;;;;;;27.75;29.25;99872.91;4356505;32;38249;-84
2022/09/02 11:33:01;;;;;;;;;;;;;;;28.07;28.15;99864.97;4365455;32;39947;-86
2022/09/02 11:35:31;;;;;;;;;;;;;;;28.20;27.19;99858.88;4356668;32;36448;-84
2022/09/02 11:38:06;;;;;;;;;;;;;;;27.84;29.83;99858.28;4354811;32;38271;-85
2022/09/02 11:40:33;;;;;;;;;;;;;;;27.75;28.97;99860.44;4353758;32;38972;-84
2022/09/02 11:43:14;;;;;;;;;;;;;;;27.94;28.75;99859.47;4353907;32;39618;-85
2022/09/02 11:45:48;;;;;;;;;;;;;;;27.81;29.87;99860.16;4347450;32;37640;-84
2022/09/02 11:48:19;;;;;;;;;;;;;;;27.47;29.05;99860.22;4342662;32;38239;-86
2022/09/02 11:50:59;;;;;;;;;;;;;;;27.64;29.57;99846.88;4355456;32;38564;-86
2022/09/02 11:53:27;;;;;;;;;;;;;;;27.69;29.63;99844.81;4358541;32;39872;-84
2022/09/02 11:56:10;;;;;;;;;;;;;;;28.35;27.05;99845.62;4346597;32;37119;-85
2022/09/02 11:58:42;;;;;;;;;;;;;;;28.41;27.76;99845.31;4352899;32;37215;-85
2022/09/02 12:01:25;;;;;;;;;;;;;;;28.49;27.20;99845.72;4357235;32;38284;-85
2022/09/02 12:04:11;;;;;;;;;;;;;;;28.45;27.44;99845.03;4357702;32;38504;-84
2022/09/02 12:07:07;;;;;;;;;;;;;;;28.46;27.50;99838.78;4350641;32;36926;-87
2022/09/02 12:09:42;;;;;;;;;;;;;;;28.62;27.45;99841.41;4363046;32;37741;-84
2022/09/02 12:12:34;;;;;;;;;;;;;;;28.32;26.72;99848.47;4353617;32;37509;-83
2022/09/02 12:15:05;;;;;;;;;;;;;;;28.43;27.37;99840.75;4351514;32;38832;-87
2022/09/02 12:17:36;;;;;;;;;;;;;;;28.41;25.22;99842.66;4349315;32;36872;-86
2022/09/02 12:20:06;;;;;;;;;;;;;;;28.27;26.26;99836.28;4350330;32;39177;-84
2022/09/02 12:22:37;;;;;;;;;;;;;;;28.14;28.36;99834.41;4350888;32;37568;-87
2022/09/02 12:25:28;;;;;;;;;;;;;;;28.10;28.45;99839.03;4359722;32;38751;-87
2022/09/02 12:28:14;;;;;;;;;;;;;;;27.99;28.37;99836.13;4356584;32;36656;-88
2022/09/02 12:30:54;;;;;;;;;;;;;;;27.96;27.77;99831.00;4326275;32;789677;-83
2022/09/02 12:33:34;;;;;;;;;;;;;;;28.02;27.80;99826.19;4352899;32;38961;-86
2022/09/02 12:36:03;;;;;;;;;;;;;;;28.07;27.41;99831.22;4353709;32;37868;-85
2022/09/02 12:38:31;;;;;;;;;;;;;;;28.05;28.87;99830.47;4352734;32;36984;-86
2022/09/02 12:41:04;;;;;;;;;;;;;;;27.85;28.27;99817.41;4349689;32;38442;-82
2022/09/02 12:43:36;;;;;;;;;;;;;;;28.09;28.69;99829.34;4354038;32;37173;-85
2022/09/02 12:46:23;;;;;;;;;;;;;;;28.06;27.81;99821.53;4348298;32;39796;-86
2022/09/02 12:48:57;;;;;;;;;;;;;;;27.88;27.84;99822.56;4351889;32;36653;-85
2022/09/02 12:51:49;;;;;;;;;;;;;;;27.77;29.60;99826.69;4350208;32;37735;-85
2022/09/02 12:54:17;;;;;;;;;;;;;;;27.66;28.15;99823.72;4348430;32;38191;-83
2022/09/02 12:56:47;;;;;;;;;;;;;;;27.68;28.94;99820.97;4359780;32;39305;-83
2022/09/02 12:59:21;;;;;;;;;;;;;;;27.66;29.11;99818.37;4351835;32;36508;-86
2022/09/02 13:02:01;;;;;;;;;;;;;;;27.58;30.60;99812.66;4342517;32;38786;-87
2022/09/02 13:04:37;;;;;;;;;;;;;;;27.75;28.94;99812.56;4356919;32;36245;-87
2022/09/02 13:07:17;;;;;;;;;;;;;;;27.70;28.31;99809.31;4351415;32;38435;-83